createdAt,value
2018-05-11T00:00:14.560Z,0.00
2018-05-11T00:01:14.510Z,0.00
2018-05-11T00:02:14.548Z,0.00
2018-05-11T00:03:14.429Z,0.00
2018-05-11T00:04:14.401Z,0.00
2018-05-11T00:05:14.359Z,0.00
2018-05-11T00:06:14.324Z,0.00
2018-05-11T00:07:14.280Z,0.00
2018-05-11T00:08:14.286Z,0.00
2018-05-11T00:09:14.225Z,0.00
2018-05-11T00:10:14.183Z,0.00
2018-05-11T00:11:14.232Z,0.00
2018-05-11T00:12:14.118Z,0.00
2018-05-11T00:13:14.078Z,0.00
2018-05-11T00:14:14.035Z,0.00
2018-05-11T00:15:14.024Z,0.00
2018-05-11T00:16:13.969Z,0.00
2018-05-11T00:17:13.929Z,0.00
2018-05-11T00:18:13.909Z,0.00
2018-05-11T00:19:13.890Z,0.00
2018-05-11T00:20:13.848Z,0.00
2018-05-11T00:21:13.800Z,0.00
2018-05-11T00:22:13.761Z,0.00
2018-05-11T00:23:13.736Z,0.00
2018-05-11T00:24:13.685Z,0.00
2018-05-11T00:25:13.652Z,0.00
2018-05-11T00:26:13.637Z,0.00
2018-05-11T00:27:13.584Z,0.00
2018-05-11T00:28:13.585Z,0.00
2018-05-11T00:29:13.520Z,0.00
2018-05-11T00:30:13.486Z,0.00
2018-05-11T00:31:13.442Z,0.00
2018-05-11T00:32:13.434Z,0.00
2018-05-11T00:33:13.387Z,0.00
2018-05-11T00:34:13.351Z,0.00
2018-05-11T00:35:13.310Z,0.00
2018-05-11T00:36:13.311Z,0.00
2018-05-11T00:37:13.254Z,0.00
2018-05-11T00:38:13.232Z,0.00
2018-05-11T00:39:13.200Z,0.00
2018-05-11T00:40:13.137Z,0.00
2018-05-11T00:41:13.103Z,0.00
2018-05-11T00:42:13.071Z,0.00
2018-05-11T00:43:13.033Z,0.00
2018-05-11T00:44:12.997Z,0.00
2018-05-11T00:45:13.037Z,0.00
2018-05-11T00:46:12.934Z,0.00
2018-05-11T00:47:12.903Z,0.00
2018-05-11T00:48:12.860Z,0.00
2018-05-11T00:49:12.819Z,0.00
2018-05-11T00:50:12.801Z,0.00
2018-05-11T00:51:12.757Z,0.00
2018-05-11T00:52:12.721Z,0.00
2018-05-11T00:53:12.678Z,0.00
2018-05-11T00:54:12.643Z,0.00
2018-05-11T00:55:12.617Z,0.00
2018-05-11T00:56:12.576Z,0.00
2018-05-11T00:57:12.555Z,0.00
2018-05-11T00:58:12.512Z,0.00
2018-05-11T00:59:12.490Z,0.00
2018-05-11T01:00:12.450Z,0.00
2018-05-11T01:01:12.421Z,0.00
2018-05-11T01:02:12.363Z,0.00
2018-05-11T01:03:12.378Z,0.00
2018-05-11T01:04:12.293Z,0.00
2018-05-11T01:05:12.274Z,0.00
2018-05-11T01:06:12.240Z,0.00
2018-05-11T01:07:12.220Z,0.00
2018-05-11T01:08:12.187Z,0.00
2018-05-11T01:09:12.154Z,0.00
2018-05-11T01:10:12.092Z,0.00
2018-05-11T01:11:12.064Z,0.00
2018-05-11T01:12:12.064Z,0.00
2018-05-11T01:13:11.989Z,0.00
2018-05-11T01:14:11.967Z,0.00
2018-05-11T01:15:11.939Z,0.00
2018-05-11T01:16:11.891Z,0.00
2018-05-11T01:17:11.853Z,0.00
2018-05-11T01:18:11.810Z,0.00
2018-05-11T01:19:11.788Z,0.00
2018-05-11T01:20:11.753Z,0.00
2018-05-11T01:21:11.702Z,0.00
2018-05-11T01:22:11.675Z,0.00
2018-05-11T01:23:11.640Z,0.00
2018-05-11T01:24:11.625Z,0.00
2018-05-11T01:25:11.575Z,0.00
2018-05-11T01:26:11.536Z,0.00
2018-05-11T01:27:11.500Z,0.00
2018-05-11T01:28:11.483Z,0.00
2018-05-11T01:29:11.447Z,0.00
2018-05-11T01:30:11.436Z,0.00
2018-05-11T01:31:11.379Z,0.00
2018-05-11T01:32:11.335Z,0.00
2018-05-11T01:33:11.349Z,0.00
2018-05-11T01:34:11.291Z,0.00
2018-05-11T01:35:11.245Z,0.00
2018-05-11T01:36:11.179Z,0.00
2018-05-11T01:37:11.148Z,0.00
2018-05-11T01:38:11.151Z,0.00
2018-05-11T01:39:11.095Z,0.00
2018-05-11T01:40:11.048Z,0.00
2018-05-11T01:41:11.005Z,0.00
2018-05-11T01:42:10.986Z,0.00
2018-05-11T01:43:10.957Z,0.00
2018-05-11T01:44:10.911Z,0.00
2018-05-11T01:45:10.916Z,0.00
2018-05-11T01:46:10.853Z,0.00
2018-05-11T01:47:10.837Z,0.00
2018-05-11T01:48:10.770Z,0.00
2018-05-11T01:49:10.746Z,0.00
2018-05-11T01:50:10.729Z,0.00
2018-05-11T01:51:10.667Z,0.00
2018-05-11T01:52:10.649Z,0.00
2018-05-11T01:53:10.592Z,0.00
2018-05-11T01:54:10.563Z,0.00
2018-05-11T01:55:10.532Z,0.00
2018-05-11T01:56:10.512Z,0.00
2018-05-11T01:57:10.513Z,0.00
2018-05-11T01:58:10.425Z,0.00
2018-05-11T01:59:10.388Z,0.00
2018-05-11T02:00:10.352Z,0.00
2018-05-11T02:01:10.317Z,0.00
2018-05-11T02:02:10.286Z,0.00
2018-05-11T02:03:10.249Z,0.00
2018-05-11T02:04:10.247Z,0.00
2018-05-11T02:05:10.194Z,0.00
2018-05-11T02:06:10.139Z,0.00
2018-05-11T02:07:10.107Z,0.00
2018-05-11T02:08:11.061Z,0.00
2018-05-11T02:09:10.558Z,0.00
2018-05-11T02:10:10.048Z,0.00
2018-05-11T02:11:10.011Z,0.00
2018-05-11T02:12:09.939Z,0.00
2018-05-11T02:13:09.900Z,0.00
2018-05-11T02:14:09.874Z,0.00
2018-05-11T02:15:09.863Z,0.00
2018-05-11T02:16:09.821Z,0.00
2018-05-11T02:17:09.761Z,0.00
2018-05-11T02:18:09.795Z,0.00
2018-05-11T02:19:09.703Z,0.00
2018-05-11T02:20:09.654Z,0.00
2018-05-11T02:21:09.652Z,0.00
2018-05-11T02:22:09.594Z,0.00
2018-05-11T02:23:09.554Z,0.00
2018-05-11T02:24:09.556Z,0.00
2018-05-11T02:25:09.478Z,0.00
2018-05-11T02:26:09.467Z,0.00
2018-05-11T02:27:09.420Z,0.00
2018-05-11T02:28:09.382Z,0.00
2018-05-11T02:29:09.369Z,0.00
2018-05-11T02:30:09.320Z,0.00
2018-05-11T02:31:09.316Z,0.00
2018-05-11T02:32:09.264Z,0.00
2018-05-11T02:33:09.274Z,0.00
2018-05-11T02:34:09.217Z,0.00
2018-05-11T02:35:09.164Z,0.00
2018-05-11T02:36:09.095Z,0.00
2018-05-11T02:37:09.066Z,0.00
2018-05-11T02:38:09.033Z,0.00
2018-05-11T02:39:08.994Z,0.00
2018-05-11T02:40:08.965Z,0.00
2018-05-11T02:41:08.949Z,0.00
2018-05-11T02:42:08.904Z,0.00
2018-05-11T02:43:08.842Z,0.00
2018-05-11T02:44:08.843Z,0.00
2018-05-11T02:45:08.860Z,0.00
2018-05-11T02:46:08.783Z,0.00
2018-05-11T02:47:08.713Z,0.00
2018-05-11T02:48:08.707Z,0.00
2018-05-11T02:49:08.652Z,0.00
2018-05-11T02:50:08.663Z,0.00
2018-05-11T02:51:08.578Z,0.00
2018-05-11T02:52:08.533Z,0.00
2018-05-11T02:53:08.539Z,0.00
2018-05-11T02:54:08.465Z,0.00
2018-05-11T02:55:08.460Z,0.00
2018-05-11T02:56:08.420Z,4.00
2018-05-11T02:57:08.367Z,4.00
2018-05-11T02:58:08.338Z,4.00
2018-05-11T02:59:08.307Z,4.00
2018-05-11T03:00:08.309Z,4.00
2018-05-11T03:01:08.217Z,4.00
2018-05-11T03:02:08.210Z,4.00
2018-05-11T03:03:09.098Z,4.00
2018-05-11T03:04:08.129Z,8.00
2018-05-11T03:05:08.117Z,8.00
2018-05-11T03:06:08.047Z,4.00
2018-05-11T03:07:08.019Z,8.00
2018-05-11T03:08:08.026Z,12.00
2018-05-11T03:09:07.953Z,12.00
2018-05-11T03:10:07.950Z,8.00
2018-05-11T03:11:07.921Z,12.00
2018-05-11T03:12:07.883Z,12.00
2018-05-11T03:13:07.854Z,12.00
2018-05-11T03:14:07.776Z,16.00
2018-05-11T03:15:07.815Z,20.00
2018-05-11T03:16:07.742Z,24.00
2018-05-11T03:17:07.656Z,28.00
2018-05-11T03:18:07.623Z,28.00
2018-05-11T03:19:07.585Z,32.00
2018-05-11T03:20:07.564Z,36.00
2018-05-11T03:21:07.614Z,36.00
2018-05-11T03:22:07.496Z,44.00
2018-05-11T03:23:07.449Z,56.00
2018-05-11T03:24:07.424Z,64.00
2018-05-11T03:25:07.392Z,72.00
2018-05-11T03:26:07.352Z,76.00
2018-05-11T03:27:07.323Z,80.00
2018-05-11T03:28:07.316Z,80.00
2018-05-11T03:29:07.244Z,92.00
2018-05-11T03:30:07.235Z,108.00
2018-05-11T03:31:07.164Z,112.00
2018-05-11T03:32:07.149Z,124.00
2018-05-11T03:33:07.099Z,144.00
2018-05-11T03:34:07.061Z,168.00
2018-05-11T03:35:07.038Z,192.00
2018-05-11T03:36:06.992Z,208.00
2018-05-11T03:37:06.969Z,216.00
2018-05-11T03:38:06.942Z,228.00
2018-05-11T03:39:06.913Z,248.00
2018-05-11T03:40:06.857Z,268.00
2018-05-11T03:41:06.831Z,308.00
2018-05-11T03:42:06.812Z,356.00
2018-05-11T03:43:06.764Z,412.00
2018-05-11T03:44:06.732Z,472.00
2018-05-11T03:45:06.684Z,528.00
2018-05-11T03:46:06.633Z,576.00
2018-05-11T03:47:06.650Z,608.00
2018-05-11T03:48:06.613Z,648.00
2018-05-11T03:49:06.549Z,696.00
2018-05-11T03:50:06.521Z,752.00
2018-05-11T03:51:06.469Z,808.00
2018-05-11T03:52:06.465Z,884.00
2018-05-11T03:53:06.415Z,980.00
2018-05-11T03:54:06.389Z,1100.00
2018-05-11T03:55:06.331Z,1236.00
2018-05-11T03:56:06.311Z,1364.00
2018-05-11T03:57:06.244Z,1496.00
2018-05-11T03:58:06.214Z,1636.00
2018-05-11T03:59:06.178Z,1784.00
2018-05-11T04:00:06.212Z,1940.00
2018-05-11T04:01:06.129Z,2108.00
2018-05-11T04:02:06.128Z,2296.00
2018-05-11T04:03:06.063Z,2500.00
2018-05-11T04:04:06.055Z,2700.00
2018-05-11T04:05:05.978Z,2900.00
2018-05-11T04:06:05.957Z,3072.00
2018-05-11T04:07:05.948Z,3192.00
2018-05-11T04:08:05.872Z,3328.00
2018-05-11T04:09:05.863Z,3488.00
2018-05-11T04:10:05.786Z,3668.00
2018-05-11T04:11:05.828Z,3824.00
2018-05-11T04:12:05.716Z,3996.00
2018-05-11T04:13:05.717Z,4160.00
2018-05-11T04:14:05.689Z,4344.00
2018-05-11T04:15:05.616Z,4504.00
2018-05-11T04:16:05.611Z,4600.00
2018-05-11T04:17:05.572Z,4628.00
2018-05-11T04:18:05.539Z,4672.00
2018-05-11T04:19:05.504Z,4696.00
2018-05-11T04:20:05.480Z,4752.00
2018-05-11T04:21:06.103Z,4860.00
2018-05-11T04:22:05.388Z,5012.00
2018-05-11T04:23:05.367Z,5224.00
2018-05-11T04:24:05.296Z,5468.00
2018-05-11T04:25:05.306Z,5664.00
2018-05-11T04:26:05.255Z,5836.00
2018-05-11T04:27:05.223Z,5996.00
2018-05-11T04:28:05.166Z,6124.00
2018-05-11T04:29:05.146Z,6276.00
2018-05-11T04:30:05.199Z,6480.00
2018-05-11T04:31:05.082Z,6740.00
2018-05-11T04:32:05.035Z,7036.00
2018-05-11T04:33:04.987Z,7336.00
2018-05-11T04:34:04.938Z,7580.00
2018-05-11T04:35:04.916Z,7772.00
2018-05-11T04:36:04.886Z,7904.00
2018-05-11T04:37:04.847Z,8068.00
2018-05-11T04:38:04.839Z,8296.00
2018-05-11T04:39:04.792Z,8628.00
2018-05-11T04:40:04.750Z,9060.00
2018-05-11T04:41:04.730Z,9548.00
2018-05-11T04:42:04.670Z,10064.00
2018-05-11T04:43:04.659Z,10588.00
2018-05-11T04:44:04.605Z,10956.00
2018-05-11T04:45:04.570Z,11064.00
2018-05-11T04:46:04.539Z,10844.00
2018-05-11T04:47:04.560Z,10208.00
2018-05-11T04:48:04.462Z,9348.00
2018-05-11T04:49:04.432Z,8584.00
2018-05-11T04:50:04.443Z,8036.00
2018-05-11T04:51:04.383Z,7704.00
2018-05-11T04:52:04.329Z,7536.00
2018-05-11T04:53:04.285Z,7404.00
2018-05-11T04:54:04.308Z,7328.00
2018-05-11T04:55:04.227Z,7264.00
2018-05-11T04:56:04.203Z,7196.00
2018-05-11T04:57:04.157Z,7168.00
2018-05-11T04:58:04.118Z,7156.00
2018-05-11T04:59:04.117Z,7180.00
2018-05-11T05:00:04.050Z,7256.00
2018-05-11T05:01:04.027Z,7348.00
2018-05-11T05:02:04.015Z,7500.00
2018-05-11T05:03:04.025Z,7720.00
2018-05-11T05:04:03.941Z,8012.00
2018-05-11T05:05:03.886Z,8328.00
2018-05-11T05:06:03.854Z,8688.00
2018-05-11T05:07:03.817Z,9096.00
2018-05-11T05:08:03.826Z,9564.00
2018-05-11T05:09:03.748Z,10112.00
2018-05-11T05:10:03.734Z,10744.00
2018-05-11T05:11:03.676Z,11352.00
2018-05-11T05:12:03.663Z,11848.00
2018-05-11T05:13:03.624Z,12228.00
2018-05-11T05:14:03.572Z,12500.00
2018-05-11T05:15:03.538Z,12620.00
2018-05-11T05:16:03.574Z,12688.00
2018-05-11T05:17:03.535Z,12812.00
2018-05-11T05:18:03.471Z,12944.00
2018-05-11T05:19:03.521Z,13040.00
2018-05-11T05:20:03.364Z,13088.00
2018-05-11T05:21:03.451Z,13176.00
2018-05-11T05:22:03.293Z,13336.00
2018-05-11T05:23:03.286Z,13724.00
2018-05-11T05:24:03.234Z,13744.00
2018-05-11T05:25:03.202Z,13836.00
2018-05-11T05:26:03.172Z,14196.00
2018-05-11T05:27:03.166Z,14748.00
2018-05-11T05:28:03.131Z,15280.00
2018-05-11T05:29:03.066Z,15728.00
2018-05-11T05:30:03.090Z,16068.00
2018-05-11T05:31:03.012Z,16436.00
2018-05-11T05:32:02.976Z,16764.00
2018-05-11T05:33:02.954Z,17108.00
2018-05-11T05:34:02.912Z,17400.00
2018-05-11T05:35:02.873Z,17856.00
2018-05-11T05:36:02.857Z,18240.00
2018-05-11T05:37:02.809Z,18656.00
2018-05-11T05:38:02.746Z,18848.00
2018-05-11T05:39:02.715Z,19072.00
2018-05-11T05:40:02.697Z,19104.00
2018-05-11T05:41:02.668Z,18976.00
2018-05-11T05:42:02.608Z,18784.00
2018-05-11T05:43:02.617Z,18560.00
2018-05-11T05:44:02.556Z,18336.00
2018-05-11T05:45:02.575Z,18272.00
2018-05-11T05:46:02.472Z,18048.00
2018-05-11T05:47:02.468Z,17596.00
2018-05-11T05:48:02.419Z,17244.00
2018-05-11T05:49:02.402Z,17228.00
2018-05-11T05:50:02.376Z,18464.00
2018-05-11T05:51:02.326Z,19456.00
2018-05-11T05:52:02.353Z,19680.00
2018-05-11T05:53:02.272Z,19520.00
2018-05-11T05:54:02.229Z,19072.00
2018-05-11T05:55:02.185Z,18656.00
2018-05-11T05:56:02.176Z,18592.00
2018-05-11T05:57:02.127Z,18080.00
2018-05-11T05:58:02.110Z,18112.00
2018-05-11T05:59:02.042Z,16912.00
2018-05-11T06:00:02.182Z,14548.00
2018-05-11T06:01:01.996Z,12768.00
2018-05-11T06:02:01.960Z,12280.00
2018-05-11T06:03:01.929Z,12560.00
2018-05-11T06:04:01.885Z,13712.00
2018-05-11T06:05:01.862Z,15328.00
2018-05-11T06:06:01.848Z,16736.00
2018-05-11T06:07:01.786Z,18624.00
2018-05-11T06:08:01.757Z,19552.00
2018-05-11T06:09:01.743Z,19968.00
2018-05-11T06:10:01.706Z,20960.00
2018-05-11T06:11:01.656Z,21440.00
2018-05-11T06:12:01.643Z,22016.00
2018-05-11T06:13:01.577Z,23168.00
2018-05-11T06:14:01.593Z,24608.00
2018-05-11T06:15:01.538Z,25792.00
2018-05-11T06:16:01.526Z,27264.00
2018-05-11T06:17:01.477Z,28800.00
2018-05-11T06:18:01.434Z,31488.00
2018-05-11T06:19:01.418Z,34176.00
2018-05-11T06:20:01.399Z,36704.00
2018-05-11T06:21:01.333Z,39904.00
2018-05-11T06:22:01.293Z,41088.00
2018-05-11T06:23:01.256Z,41664.00
2018-05-11T06:24:01.239Z,42368.00
2018-05-11T06:25:01.204Z,43488.00
2018-05-11T06:26:01.186Z,44160.00
2018-05-11T06:27:01.143Z,42176.00
2018-05-11T06:28:01.091Z,40480.00
2018-05-11T06:29:01.063Z,39168.00
2018-05-11T06:30:01.048Z,38336.00
2018-05-11T06:31:01.656Z,37760.00
2018-05-11T06:32:00.966Z,38784.00
2018-05-11T06:33:00.965Z,38592.00
2018-05-11T06:34:00.917Z,37952.00
2018-05-11T06:35:00.898Z,39136.00
2018-05-11T06:36:00.834Z,37920.00
2018-05-11T06:37:00.816Z,39040.00
2018-05-11T06:38:00.791Z,40992.00
2018-05-11T06:39:00.762Z,40544.00
2018-05-11T06:40:00.728Z,39328.00
2018-05-11T06:41:00.676Z,36864.00
2018-05-11T06:42:00.658Z,35648.00
2018-05-11T06:43:00.636Z,37888.00
2018-05-11T06:44:00.631Z,38624.00
2018-05-11T06:45:00.565Z,53632.00
2018-05-11T06:46:00.610Z,66912.00
2018-05-11T06:47:00.508Z,79072.00
2018-05-11T06:48:00.488Z,81152.00
2018-05-11T06:49:00.451Z,82176.00
2018-05-11T06:50:00.410Z,81728.00
2018-05-11T06:51:00.410Z,62752.00
2018-05-11T06:52:00.335Z,72160.00
2018-05-11T06:53:00.322Z,61824.00
2018-05-11T06:54:00.281Z,75456.00
2018-05-11T06:55:00.260Z,74368.00
2018-05-11T06:56:00.249Z,75040.00
2018-05-11T06:57:00.223Z,51200.00
2018-05-11T06:58:00.177Z,68672.00
2018-05-11T06:59:00.154Z,73056.00
2018-05-11T07:00:00.151Z,32128.00
2018-05-11T07:01:00.103Z,43808.00
2018-05-11T07:02:00.064Z,59168.00
2018-05-11T07:03:00.084Z,37792.00
2018-05-11T07:04:00.047Z,74848.00
2018-05-11T07:04:59.980Z,53312.00
2018-05-11T07:05:59.980Z,33376.00
2018-05-11T07:06:59.943Z,42944.00
2018-05-11T07:07:59.960Z,61472.00
2018-05-11T07:08:59.907Z,34464.00
2018-05-11T07:09:59.874Z,34400.00
2018-05-11T07:10:59.818Z,31936.00
2018-05-11T07:11:59.822Z,33120.00
2018-05-11T07:12:59.773Z,40832.00
2018-05-11T07:13:59.791Z,32768.00
2018-05-11T07:14:59.733Z,30176.00
2018-05-11T07:15:59.687Z,25504.00
2018-05-11T07:16:59.684Z,55264.00
2018-05-11T07:17:59.670Z,33344.00
2018-05-11T07:18:59.611Z,28288.00
2018-05-11T07:19:59.587Z,77312.00
2018-05-11T07:20:59.560Z,29408.00
2018-05-11T07:21:59.531Z,85088.00
2018-05-11T07:22:59.510Z,81696.00
2018-05-11T07:23:59.489Z,78592.00
2018-05-11T07:24:59.487Z,72960.00
2018-05-11T07:25:59.437Z,75072.00
2018-05-11T07:26:59.398Z,69504.00
2018-05-11T07:27:59.389Z,75872.00
2018-05-11T07:28:59.360Z,64352.00
2018-05-11T07:29:59.339Z,72256.00
2018-05-11T07:30:59.278Z,76704.00
2018-05-11T07:31:59.272Z,83296.00
2018-05-11T07:32:59.268Z,85152.00
2018-05-11T07:33:59.202Z,83840.00
2018-05-11T07:34:59.226Z,78272.00
2018-05-11T07:35:59.168Z,83168.00
2018-05-11T07:36:59.136Z,81664.00
2018-05-11T07:37:59.108Z,88512.00
2018-05-11T07:38:59.092Z,35136.00
2018-05-11T07:39:59.076Z,51968.00
2018-05-11T07:40:59.044Z,96576.00
2018-05-11T07:41:59.033Z,88512.00
2018-05-11T07:42:59.014Z,83200.00
2018-05-11T07:43:58.993Z,86144.00
2018-05-11T07:44:58.956Z,88800.00
2018-05-11T07:45:58.946Z,89056.00
2018-05-11T07:46:58.896Z,94656.00
2018-05-11T07:47:58.895Z,100512.00
2018-05-11T07:48:58.871Z,98912.00
2018-05-11T07:49:58.833Z,93696.00
2018-05-11T07:50:58.815Z,92576.00
2018-05-11T07:51:58.795Z,93664.00
2018-05-11T07:52:58.755Z,93568.00
2018-05-11T07:53:58.744Z,93568.00
2018-05-11T07:54:58.728Z,92192.00
2018-05-11T07:55:58.717Z,92864.00
2018-05-11T07:56:58.681Z,95616.00
2018-05-11T07:57:58.659Z,95808.00
2018-05-11T07:58:58.650Z,98272.00
2018-05-11T07:59:58.605Z,97888.00
2018-05-11T08:00:58.601Z,97376.00
2018-05-11T08:01:58.597Z,97856.00
2018-05-11T08:02:58.545Z,99072.00
2018-05-11T08:03:58.515Z,88544.00
2018-05-11T08:04:58.504Z,90400.00
2018-05-11T08:05:58.473Z,69184.00
2018-05-11T08:06:58.464Z,56448.00
2018-05-11T08:07:58.470Z,67776.00
2018-05-11T08:08:58.424Z,44032.00
2018-05-11T08:09:58.391Z,38752.00
2018-05-11T08:10:58.390Z,37024.00
2018-05-11T08:11:58.362Z,37664.00
2018-05-11T08:12:58.321Z,36512.00
2018-05-11T08:13:58.359Z,37984.00
2018-05-11T08:14:58.299Z,40896.00
2018-05-11T08:15:58.268Z,52000.00
2018-05-11T08:16:58.240Z,112224.00
2018-05-11T08:17:58.233Z,73568.00
2018-05-11T08:18:58.210Z,46048.00
2018-05-11T08:19:58.171Z,42624.00
2018-05-11T08:20:58.147Z,45024.00
2018-05-11T08:21:58.132Z,55424.00
2018-05-11T08:22:58.130Z,54240.00
2018-05-11T08:23:58.089Z,69600.00
2018-05-11T08:24:58.087Z,61888.00
2018-05-11T08:25:58.062Z,67520.00
2018-05-11T08:26:58.123Z,106368.00
2018-05-11T08:27:58.006Z,106816.00
2018-05-11T08:28:57.990Z,52256.00
2018-05-11T08:29:57.970Z,40032.00
2018-05-11T08:30:57.925Z,37312.00
2018-05-11T08:31:57.907Z,37536.00
2018-05-11T08:32:57.897Z,38624.00
2018-05-11T08:33:57.854Z,38592.00
2018-05-11T08:34:57.869Z,38656.00
2018-05-11T08:35:57.873Z,39520.00
2018-05-11T08:36:57.792Z,38336.00
2018-05-11T08:37:57.774Z,36512.00
2018-05-11T08:38:57.753Z,35744.00
2018-05-11T08:39:57.737Z,37696.00
2018-05-11T08:40:57.681Z,51584.00
2018-05-11T08:41:57.664Z,92416.00
2018-05-11T08:42:57.647Z,59648.00
2018-05-11T08:43:57.633Z,33056.00
2018-05-11T08:44:57.586Z,29824.00
2018-05-11T08:45:57.591Z,27840.00
2018-05-11T08:46:57.526Z,27072.00
2018-05-11T08:47:57.608Z,27840.00
2018-05-11T08:48:57.501Z,29472.00
2018-05-11T08:49:57.466Z,32384.00
2018-05-11T08:50:57.467Z,36320.00
2018-05-11T08:51:57.456Z,39104.00
2018-05-11T08:52:57.391Z,40896.00
2018-05-11T08:53:57.365Z,40832.00
2018-05-11T08:54:57.342Z,41408.00
2018-05-11T08:55:57.347Z,40800.00
2018-05-11T08:56:57.288Z,42016.00
2018-05-11T08:57:57.247Z,43648.00
2018-05-11T08:58:57.350Z,47616.00
2018-05-11T08:59:57.217Z,54432.00
2018-05-11T09:00:57.172Z,95648.00
2018-05-11T09:01:57.176Z,126432.00
2018-05-11T09:02:57.172Z,96640.00
2018-05-11T09:03:57.094Z,100928.00
2018-05-11T09:04:57.066Z,86016.00
2018-05-11T09:05:57.033Z,67232.00
2018-05-11T09:06:57.014Z,63616.00
2018-05-11T09:07:56.984Z,67488.00
2018-05-11T09:08:57.016Z,76640.00
2018-05-11T09:09:56.949Z,72032.00
2018-05-11T09:10:56.920Z,62240.00
2018-05-11T09:11:56.911Z,57632.00
2018-05-11T09:12:56.851Z,57344.00
2018-05-11T09:13:56.902Z,64544.00
2018-05-11T09:14:56.837Z,69984.00
2018-05-11T09:15:56.772Z,79232.00
2018-05-11T09:16:56.744Z,78368.00
2018-05-11T09:17:56.735Z,107968.00
2018-05-11T09:18:56.731Z,85824.00
2018-05-11T09:19:56.668Z,57792.00
2018-05-11T09:20:56.646Z,57952.00
2018-05-11T09:21:56.711Z,49536.00
2018-05-11T09:22:56.589Z,67776.00
2018-05-11T09:23:56.580Z,104992.00
2018-05-11T09:24:56.542Z,108512.00
2018-05-11T09:25:56.525Z,110880.00
2018-05-11T09:26:56.492Z,117216.00
2018-05-11T09:27:56.471Z,120864.00
2018-05-11T09:28:56.447Z,123488.00
2018-05-11T09:29:56.440Z,127456.00
2018-05-11T09:30:56.418Z,126016.00
2018-05-11T09:31:56.469Z,121472.00
2018-05-11T09:32:56.393Z,112992.00
2018-05-11T09:33:56.446Z,112544.00
2018-05-11T09:34:56.300Z,112576.00
2018-05-11T09:35:56.267Z,108736.00
2018-05-11T09:36:56.384Z,105600.00
2018-05-11T09:37:56.257Z,110400.00
2018-05-11T09:38:56.211Z,112928.00
2018-05-11T09:39:56.833Z,126496.00
2018-05-11T09:40:56.162Z,129056.00
2018-05-11T09:41:56.153Z,125952.00
2018-05-11T09:42:56.138Z,127136.00
2018-05-11T09:43:56.091Z,137696.00
2018-05-11T09:44:56.083Z,140032.00
2018-05-11T09:45:56.050Z,135040.00
2018-05-11T09:46:56.046Z,130304.00
2018-05-11T09:47:56.010Z,129696.00
2018-05-11T09:48:55.972Z,124864.00
2018-05-11T09:49:55.949Z,121440.00
2018-05-11T09:50:55.917Z,126112.00
2018-05-11T09:51:55.911Z,133184.00
2018-05-11T09:52:55.901Z,131616.00
2018-05-11T09:53:55.866Z,128576.00
2018-05-11T09:54:55.907Z,131104.00
2018-05-11T09:55:55.817Z,70560.00
2018-05-11T09:56:55.827Z,88288.00
2018-05-11T09:57:55.808Z,71488.00
2018-05-11T09:58:55.743Z,94656.00
2018-05-11T09:59:55.786Z,81408.00
2018-05-11T10:00:55.880Z,136896.00
2018-05-11T10:01:55.733Z,154912.00
2018-05-11T10:02:55.682Z,148000.00
2018-05-11T10:03:55.659Z,143392.00
2018-05-11T10:04:55.630Z,148608.00
2018-05-11T10:05:55.624Z,147904.00
2018-05-11T10:06:55.583Z,136768.00
2018-05-11T10:07:55.590Z,123520.00
2018-05-11T10:08:55.560Z,132416.00
2018-05-11T10:09:55.523Z,148672.00
2018-05-11T10:10:55.513Z,139040.00
2018-05-11T10:11:55.499Z,120832.00
2018-05-11T10:12:55.472Z,117312.00
2018-05-11T10:13:55.485Z,97728.00
2018-05-11T10:14:55.436Z,126912.00
2018-05-11T10:15:55.409Z,142432.00
2018-05-11T10:16:55.386Z,123584.00
2018-05-11T10:17:55.376Z,135584.00
2018-05-11T10:18:55.359Z,135456.00
2018-05-11T10:19:55.401Z,143968.00
2018-05-11T10:20:55.465Z,145088.00
2018-05-11T10:21:55.290Z,147616.00
2018-05-11T10:22:55.284Z,116448.00
2018-05-11T10:23:55.246Z,107872.00
2018-05-11T10:24:55.214Z,139040.00
2018-05-11T10:25:55.222Z,123840.00
2018-05-11T10:26:55.190Z,48384.00
2018-05-11T10:27:55.154Z,46976.00
2018-05-11T10:28:55.170Z,49024.00
2018-05-11T10:29:55.140Z,49280.00
2018-05-11T10:30:55.099Z,48288.00
2018-05-11T10:31:55.068Z,47008.00
2018-05-11T10:32:55.066Z,46336.00
2018-05-11T10:33:55.058Z,42368.00
2018-05-11T10:34:55.020Z,40448.00
2018-05-11T10:35:55.011Z,40608.00
2018-05-11T10:36:54.997Z,41152.00
2018-05-11T10:37:54.959Z,41664.00
2018-05-11T10:38:54.936Z,42784.00
2018-05-11T10:39:54.943Z,44064.00
2018-05-11T10:40:54.892Z,44384.00
2018-05-11T10:41:54.864Z,43968.00
2018-05-11T10:42:54.865Z,43776.00
2018-05-11T10:43:54.829Z,44032.00
2018-05-11T10:44:54.804Z,44416.00
2018-05-11T10:45:54.792Z,44864.00
2018-05-11T10:46:54.829Z,46432.00
2018-05-11T10:47:54.732Z,49440.00
2018-05-11T10:48:54.807Z,54240.00
2018-05-11T10:49:54.679Z,55808.00
2018-05-11T10:50:54.666Z,57856.00
2018-05-11T10:51:54.641Z,53344.00
2018-05-11T10:52:54.624Z,50848.00
2018-05-11T10:53:54.593Z,49792.00
2018-05-11T10:54:54.669Z,49280.00
2018-05-11T10:55:54.561Z,49408.00
2018-05-11T10:56:54.569Z,49664.00
2018-05-11T10:57:54.554Z,50336.00
2018-05-11T10:58:54.494Z,51552.00
2018-05-11T10:59:54.478Z,55008.00
2018-05-11T11:00:54.426Z,60672.00
2018-05-11T11:01:54.421Z,69184.00
2018-05-11T11:02:54.385Z,101536.00
2018-05-11T11:03:54.366Z,155584.00
2018-05-11T11:04:54.361Z,158720.00
2018-05-11T11:05:54.361Z,168608.00
2018-05-11T11:06:54.299Z,153952.00
2018-05-11T11:07:54.278Z,129344.00
2018-05-11T11:08:54.244Z,89056.00
2018-05-11T11:09:54.240Z,85152.00
2018-05-11T11:10:54.312Z,61088.00
2018-05-11T11:11:54.179Z,55520.00
2018-05-11T11:12:54.157Z,53280.00
2018-05-11T11:13:54.177Z,50976.00
2018-05-11T11:14:54.109Z,51488.00
2018-05-11T11:15:54.115Z,58976.00
2018-05-11T11:16:54.103Z,79360.00
2018-05-11T11:17:54.037Z,107072.00
2018-05-11T11:18:54.029Z,127328.00
2018-05-11T11:19:54.085Z,141824.00
2018-05-11T11:20:54.029Z,102080.00
2018-05-11T11:21:53.953Z,67904.00
2018-05-11T11:22:53.928Z,56224.00
2018-05-11T11:23:53.875Z,53376.00
2018-05-11T11:24:53.861Z,52832.00
2018-05-11T11:25:53.899Z,51520.00
2018-05-11T11:26:53.813Z,53728.00
2018-05-11T11:27:53.855Z,58912.00
2018-05-11T11:28:53.772Z,66976.00
2018-05-11T11:29:53.933Z,72128.00
2018-05-11T11:30:53.766Z,164192.00
2018-05-11T11:31:53.696Z,152352.00
2018-05-11T11:32:53.675Z,141472.00
2018-05-11T11:33:53.636Z,148640.00
2018-05-11T11:34:53.686Z,151904.00
2018-05-11T11:35:53.655Z,147040.00
2018-05-11T11:36:53.555Z,141504.00
2018-05-11T11:37:53.577Z,146528.00
2018-05-11T11:38:53.517Z,52128.00
2018-05-11T11:39:53.505Z,45440.00
2018-05-11T11:40:53.531Z,42784.00
2018-05-11T11:41:53.620Z,42272.00
2018-05-11T11:42:53.528Z,41408.00
2018-05-11T11:43:53.417Z,39680.00
2018-05-11T11:44:53.373Z,38784.00
2018-05-11T11:45:53.443Z,39296.00
2018-05-11T11:46:53.342Z,40960.00
2018-05-11T11:47:53.321Z,42464.00
2018-05-11T11:48:53.316Z,43680.00
2018-05-11T11:49:53.269Z,44704.00
2018-05-11T11:50:53.263Z,46016.00
2018-05-11T11:51:53.213Z,47392.00
2018-05-11T11:52:53.201Z,48160.00
2018-05-11T11:53:53.178Z,49024.00
2018-05-11T11:54:53.157Z,50656.00
2018-05-11T11:55:53.132Z,53088.00
2018-05-11T11:56:53.104Z,55264.00
2018-05-11T11:57:53.087Z,55584.00
2018-05-11T11:58:53.076Z,55488.00
2018-05-11T11:59:53.039Z,54464.00
2018-05-11T12:00:53.018Z,52448.00
2018-05-11T12:01:53.009Z,50176.00
2018-05-11T12:02:52.960Z,48096.00
2018-05-11T12:03:52.944Z,47072.00
2018-05-11T12:04:52.935Z,47168.00
2018-05-11T12:05:52.903Z,47904.00
2018-05-11T12:06:52.862Z,48736.00
2018-05-11T12:07:52.869Z,49216.00
2018-05-11T12:08:52.810Z,49472.00